Latest Weather Observations for Mount Baw Baw

IDV60801

Issued at 11:22 pm EST Monday 24 June 2019 (issued every 10 minutes, with the page automatically refreshed every 10 minutes)

About weather observations | Map of weather stations | Latest weather observations for VIC | Other Formats
Station Details ID: 085291 Name: MOUNT BAW BAW Lat: -37.84 Lon: 146.27 Height: 1561.0 m
Data from the previous 72 hours. | See also: Recent months at Mount Baw Baw
Date/Time
EST
Temp
°C
App
Temp
°C
Dew
Point
°C
Rel
Hum
%
Delta-T
°C
Wind Press
QNH
hPa
Press
MSL
hPa
Rain since
9am
mm
Dir  Spd
km/h
Gust
km/h
Spd
kts
Gust
kts
24/11:00pm 2.6 -1.5 -9.3 41 4.0 ENE 6 7 - 4 - - 0.2
24/10:30pm 2.7 -1.8 -11.2 35 4.5 ENE 7 9 - 5 - - 0.2
24/10:00pm 2.4 -1.9 -10.8 37 4.3 ENE 6 11 - 6 - - 0.2
24/09:30pm 2.3 -2.1 -9.6 41 4.0 ENE 7 9 - 5 - - 0.2
24/09:00pm 1.9 -2.5 -9.9 41 3.9 ENE 7 9 - 5 - - 0.2
24/08:30pm 1.5 -1.8 -13.0 33 4.3 CALM 0 0 - 0 - - 0.2
24/08:00pm 0.7 -2.4 -11.0 41 3.6 CALM 0 0 - 0 - - 0.2
24/07:30pm 0.2 -2.8 -9.8 47 3.1 CALM 0 0 - 0 - - 0.2
24/07:00pm -0.1 -2.5 -3.3 79 1.2 CALM 0 0 - 0 - - 0.2
24/06:30pm 0.5 -2.2 -5.7 63 2.2 CALM 0 0 - 0 - - 0.2
24/06:00pm 0.3 -2.0 -2.2 83 1.0 CALM 0 0 - 0 - - 0.2
24/05:30pm 0.5 -1.8 -2.2 82 1.1 CALM 0 0 - 0 - - 0.2
24/05:00pm 1.2 -1.3 -3.8 69 1.9 CALM 0 0 - 0 - - 0.2
24/04:30pm 1.1 -1.4 -0.7 88 0.7 SSE 2 7 - 4 - - 0.2
24/04:00pm 3.0 0.7 -2.1 69 2.0 CALM 0 0 - 0 - - 0.2
24/03:30pm 4.2 2.0 -1.2 68 2.2 CALM 0 0 - 0 - - 0.2
24/03:00pm 4.0 1.8 -1.2 69 2.1 CALM 0 0 - 0 - - 0.2
24/02:30pm 3.5 1.3 -1.6 69 2.0 CALM 0 0 - 0 - - 0.2
24/02:00pm 4.0 1.7 -2.2 64 2.5 CALM 0 0 - 0 - - 0.2
24/01:30pm 5.8 3.1 -2.8 54 3.4 E 2 6 - 3 - - 0.2
24/01:00pm 6.5 3.7 -2.9 51 3.8 ESE 2 9 - 5 - - 0.2
24/12:30pm 6.1 3.1 -2.0 56 3.3 ENE 4 9 - 5 - - 0.2
24/12:00pm 6.4 3.2 -3.8 48 4.0 ENE 4 9 - 5 - - 0.2
24/11:30am 3.6 0.5 -2.3 65 2.3 SE 4 7 - 4 - - 0.2
24/11:00am 4.7 1.4 -4.3 52 3.4 ESE 4 9 - 5 - - 0.2
24/10:30am 4.3 0.5 -5.7 48 3.6 E 6 9 - 5 - - 0.2
24/10:00am 4.2 0.5 -4.8 52 3.3 NE 6 9 - 5 - - 0.0
24/09:30am 2.3 -1.4 -4.9 59 2.7 ENE 6 9 - 5 - - 0.0
24/09:00am 1.4 -2.1 -6.6 55 2.8 ENE 4 6 - 3 - - 0.0
24/08:30am -3.1 -6.4 -4.6 89 0.4 NE 4 7 - 4 - - 0.0
24/08:00am -2.8 -6.6 -5.8 80 0.9 NNW 6 9 - 5 - - 0.0
24/07:30am -3.0 -6.8 -5.2 85 0.6 E 6 7 - 4 - - 0.0
24/07:00am -3.0 -7.1 -6.6 76 1.0 E 7 9 - 5 - - 0.0
24/06:30am -3.0 -7.0 -5.2 85 0.6 E 7 7 - 4 - - 0.0
24/06:00am -2.9 -6.8 -6.9 74 1.2 E 6 7 - 4 - - 0.0
24/05:30am -2.3 -5.1 -6.5 73 1.3 CALM 0 7 - 4 - - 0.0
24/05:00am -0.4 -3.6 -7.4 59 2.3 E 2 6 - 3 - - 0.0
24/04:30am -0.3 -4.3 -7.1 60 2.3 E 6 9 - 5 - - 0.0
24/04:00am -0.7 -5.1 -6.0 67 1.8 E 9 13 - 7 - - 0.0
24/03:30am -1.5 -5.8 -5.3 75 1.2 E 9 13 - 7 - - 0.0
24/03:00am -1.5 -5.8 -5.2 76 1.2 E 9 17 - 9 - - 0.0
24/02:30am -1.4 -5.7 -4.6 79 1.1 E 9 13 - 7 - - 0.0
24/02:00am -1.1 -4.8 -4.1 80 1.0 E 6 17 - 9 - - 0.0
24/01:30am -1.6 -5.9 -4.6 80 1.0 E 9 19 - 10 - - 0.0
24/01:00am -2.1 -7.9 -4.4 84 0.7 E 17 28 - 15 - - 0.0
24/12:30am -2.2 -7.9 -3.6 90 0.4 E 17 28 - 15 - - 0.0
24/12:00am -2.2 -7.4 -2.9 95 0.1 E 15 28 - 15 - - 0.0
 
Date/Time
EST
Temp
°C
App
Temp
°C
Dew
Point
°C
Rel
Hum
%
Delta-T
°C
Wind Press
QNH
hPa
Press
MSL
hPa
Rain since
9am
mm
Dir  Spd
km/h
Gust
km/h
Spd
kts
Gust
kts
23/11:30pm -2.4 -7.6 -2.7 98 0.0 E 15 22 - 12 - - 0.0
23/11:00pm -2.7 -7.9 -2.8 99 -0.1 E 15 24 - 13 - - 0.0
23/10:30pm -2.9 -7.8 -3.0 99 -0.1 E 13 20 - 11 - - 0.0
23/10:00pm -2.7 -7.5 -2.8 99 -0.1 E 13 19 - 10 - - 0.0
23/09:30pm -2.5 -7.7 -2.6 99 -0.1 E 15 20 - 11 - - 0.0
23/09:00pm -2.2 -7.0 -2.3 99 -0.1 E 13 20 - 11 - - 0.0
23/08:30pm -2.1 -7.2 -2.2 99 -0.1 E 15 30 - 16 - - 0.0
23/08:00pm -2.1 -7.2 -2.2 99 -0.1 E 15 26 - 14 - - 0.0
23/07:30pm -2.1 -7.2 -2.2 99 -0.1 E 15 24 - 13 - - 0.0
23/07:00pm -2.1 -6.5 -2.2 99 -0.1 E 11 22 - 12 - - 0.0
23/06:30pm -2.2 -7.0 -2.3 99 -0.1 E 13 22 - 12 - - 0.0
23/06:00pm -2.4 -6.8 -2.5 99 -0.1 E 11 22 - 12 - - 0.0
23/05:30pm -2.6 -7.4 -2.7 99 -0.1 E 13 17 - 9 - - 0.0
23/05:00pm -2.6 -7.0 -2.7 99 -0.1 ENE 11 17 - 9 - - 0.0
23/04:30pm -2.4 -6.8 -2.5 99 -0.1 ENE 11 20 - 11 - - 0.0
23/04:00pm -2.1 -6.1 -2.2 99 -0.1 E 9 15 - 8 - - 0.0
23/03:30pm -1.5 -5.4 -1.6 99 0.0 ENE 9 13 - 7 - - 0.0
23/03:00pm -1.1 -4.6 -1.2 99 0.0 E 7 13 - 7 - - 0.0
23/02:30pm -0.9 -4.7 -1.0 99 0.0 ENE 9 17 - 9 - - 0.0
23/02:00pm -1.2 -5.5 -1.3 99 0.0 ENE 11 17 - 9 - - 0.0
23/01:30pm -0.7 -4.5 -0.8 99 0.0 ENE 9 17 - 9 - - 0.0
23/01:00pm -0.6 -4.4 -0.7 99 0.0 E 9 17 - 9 - - 0.0
23/12:30pm -0.5 -4.3 -0.6 99 0.0 ENE 9 19 - 10 - - 0.0
23/12:00pm -0.6 -2.7 -0.7 99 0.0 CALM 0 0 - 0 - - 0.0
23/11:30am -0.8 -2.9 -0.9 99 0.0 CALM 0 0 - 0 - - 0.0
23/11:00am -1.4 -3.6 -1.5 99 0.0 CALM 0 0 - 0 - - 0.0
23/10:30am -1.1 -3.2 -1.1 100 0.0 CALM 0 0 - 0 - - 0.0
23/10:00am -1.3 -3.5 -1.4 99 0.0 CALM 0 0 - 0 - - 0.0
23/09:30am -1.8 -4.0 -1.9 99 -0.1 CALM 0 0 - 0 - - 0.0
23/09:00am -2.2 -4.5 -2.3 99 -0.1 CALM 0 0 - 0 - - 0.0
23/08:30am -2.5 -4.8 -2.6 99 -0.1 CALM 0 0 - 0 - - 0.0
23/08:00am -2.8 -5.2 -2.9 99 -0.1 CALM 0 0 - 0 - - 0.0
23/07:30am -2.9 -5.3 -3.0 99 -0.1 CALM 0 0 - 0 - - 0.0
23/07:00am -2.8 -5.2 -2.9 99 -0.1 CALM 0 0 - 0 - - 0.0
23/06:30am -2.9 -5.3 -3.0 99 -0.1 CALM 0 0 - 0 - - 0.0
23/06:00am -3.1 -5.5 -3.2 99 -0.1 CALM 0 0 - 0 - - 0.0
23/05:30am -3.1 -5.5 -3.2 99 -0.1 CALM 0 0 - 0 - - 0.0
23/05:00am -3.2 -5.6 -3.3 99 -0.1 CALM 0 0 - 0 - - 0.0
23/04:30am -3.2 -5.6 -3.3 99 -0.1 CALM 0 0 - 0 - - 0.0
23/04:00am -3.1 -5.5 -3.2 99 -0.1 CALM 0 0 - 0 - - 0.0
23/03:30am -3.1 -5.5 -3.2 99 -0.1 CALM 0 0 - 0 - - 0.0
23/03:00am -3.2 -5.6 -3.3 99 -0.1 CALM 0 0 - 0 - - 0.0
23/02:30am -3.2 -5.6 -3.3 99 -0.1 CALM 0 0 - 0 - - 0.0
23/02:00am -3.2 -5.6 -3.3 99 -0.1 CALM 0 0 - 0 - - 0.0
23/01:30am -3.4 -5.8 -3.5 99 -0.1 CALM 0 0 - 0 - - 0.0
23/01:00am -3.6 -6.1 -3.7 99 -0.1 CALM 0 0 - 0 - - 0.0
23/12:30am -3.6 -6.1 -3.7 99 -0.1 CALM 0 0 - 0 - - 0.0
23/12:00am -3.5 -6.0 -3.6 99 -0.1 CALM 0 0 - 0 - - 0.0
 
Date/Time
EST
Temp
°C
App
Temp
°C
Dew
Point
°C
Rel
Hum
%
Delta-T
°C
Wind Press
QNH
hPa
Press
MSL
hPa
Rain since
9am
mm
Dir  Spd
km/h
Gust
km/h
Spd
kts
Gust
kts
22/11:30pm -3.6 -6.1 -3.7 99 -0.1 CALM 0 0 - 0 - - 0.0
22/11:00pm -3.5 -6.0 -3.6 99 -0.1 CALM 0 0 - 0 - - 0.0
22/10:30pm -3.2 -5.6 -3.3 99 -0.1 CALM 0 0 - 0 - - 0.0
22/10:00pm -2.7 -5.1 -2.8 99 -0.1 CALM 0 0 - 0 - - 0.0
22/09:30pm -2.4 -4.7 -2.5 99 -0.1 CALM 0 0 - 0 - - 0.0
22/09:00pm -2.1 -4.4 -2.2 99 -0.1 CALM 0 0 - 0 - - 0.0
22/08:30pm -1.9 -4.2 -2.0 99 -0.1 CALM 0 0 - 0 - - 0.0
22/08:00pm -1.8 -4.0 -1.9 99 -0.1 CALM 0 0 - 0 - - 0.0
22/07:30pm -1.8 -4.0 -1.9 99 -0.1 CALM 0 0 - 0 - - 0.0
22/07:00pm -1.8 -4.0 -1.9 99 -0.1 CALM 0 0 - 0 - - 0.0
22/06:30pm -1.8 -4.0 -1.9 99 -0.1 CALM 0 0 - 0 - - 0.0
22/06:00pm -1.9 -4.2 -2.0 99 -0.1 CALM 0 0 - 0 - - 0.0
22/05:30pm -1.9 -4.2 -2.0 99 -0.1 CALM 0 0 - 0 - - 0.0
22/05:00pm -1.8 -4.0 -1.9 99 -0.1 CALM 0 0 - 0 - - 0.0
22/04:30pm -1.6 -3.8 -1.7 99 0.0 CALM 0 0 - 0 - - 0.0
22/04:00pm -0.9 -3.0 -0.9 100 0.0 CALM 0 0 - 0 - - 0.0
22/03:30pm -0.7 -2.8 -0.7 100 0.0 CALM 0 0 - 0 - - 0.0
22/03:00pm -0.7 -2.8 -0.7 100 0.0 CALM 0 0 - 0 - - 0.0
22/02:30pm -0.6 -2.7 -0.6 100 0.0 CALM 0 0 - 0 - - 0.0
22/02:00pm -0.5 -2.6 -0.5 100 0.0 CALM 0 0 - 0 - - 0.0
22/01:30pm -0.5 -2.6 -0.5 100 0.0 CALM 0 0 - 0 - - 0.0
22/01:00pm -0.7 -2.8 -0.7 100 0.0 CALM 0 0 - 0 - - 0.0
22/12:30pm -0.8 -2.9 -0.8 100 0.0 CALM 0 0 - 0 - - 0.0
22/12:00pm -1.1 -3.2 -1.1 100 0.0 CALM 0 0 - 0 - - 0.0
22/11:30am -1.0 -3.1 -1.0 100 0.0 CALM 0 0 - 0 - - 0.0
22/11:00am -1.2 -3.4 -1.3 99 0.0 CALM 0 0 - 0 - - 0.0
22/10:30am -1.2 -3.4 -1.3 99 0.0 CALM 0 0 - 0 - - 0.0
22/10:00am -1.5 -3.7 -1.6 99 0.0 CALM 0 0 - 0 - - 0.0
22/09:30am -1.9 -4.2 -2.0 99 -0.1 CALM 0 0 - 0 - - 0.0
22/09:00am -2.2 -4.5 -2.3 99 -0.1 CALM 0 0 - 0 - - 4.4
22/08:30am -2.4 -4.7 -2.5 99 -0.1 CALM 0 0 - 0 - - 4.4
22/08:00am -2.5 -4.8 -2.6 99 -0.1 CALM 0 0 - 0 - - 4.4
22/07:30am -2.5 -4.8 -2.6 99 -0.1 CALM 0 0 - 0 - - 4.4
22/07:00am -2.6 -4.9 -2.7 99 -0.1 CALM 0 0 - 0 - - 4.4
22/06:30am -2.5 -4.8 -2.6 99 -0.1 CALM 0 0 - 0 - - 4.4
22/06:00am -2.5 -4.8 -2.6 99 -0.1 CALM 0 0 - 0 - - 4.4
22/05:30am -2.5 -4.8 -2.6 99 -0.1 CALM 0 0 - 0 - - 4.4
22/05:00am -2.7 -5.1 -2.8 99 -0.1 CALM 0 0 - 0 - - 4.4
22/04:30am -2.7 -5.1 -2.8 99 -0.1 CALM 0 0 - 0 - - 4.4
22/04:00am -2.5 -4.8 -2.6 99 -0.1 CALM 0 0 - 0 - - 4.4
22/03:30am -2.1 -4.4 -2.2 99 -0.1 CALM 0 0 - 0 - - 4.2
22/03:00am -2.0 -4.3 -2.1 99 -0.1 CALM 0 0 - 0 - - 4.2
22/02:30am -2.1 -4.4 -2.2 99 -0.1 CALM 0 0 - 0 - - 3.6
22/02:00am -2.0 -4.3 -2.1 99 -0.1 CALM 0 0 - 0 - - 3.2
22/01:30am -2.1 -4.4 -2.2 99 -0.1 CALM 0 0 - 0 - - 3.2
22/01:00am -2.3 -4.6 -2.4 99 -0.1 CALM 0 0 - 0 - - 3.2
22/12:30am -2.4 -4.7 -2.5 99 -0.1 CALM 0 0 - 0 - - 3.2
22/12:00am -2.2 -4.5 -2.3 99 -0.1 CALM 0 0 - 0 - - 3.2
 
Date/Time
EST
Temp
°C
App
Temp
°C
Dew
Point
°C
Rel
Hum
%
Delta-T
°C
Wind Press
QNH
hPa
Press
MSL
hPa
Rain since
9am
mm
Dir  Spd
km/h
Gust
km/h
Spd
kts
Gust
kts
21/11:30pm -2.3 -4.6 -2.4 99 -0.1 CALM 0 0 - 0 - - 3.2

Other formats

Comma delimited format used in spreadsheet applications
http://www.bom.gov.au/fwo/IDV60801/IDV60801.95901.axf

JavaScript Object Notation format (JSON) in row-major order
http://www.bom.gov.au/fwo/IDV60801/IDV60801.95901.json

Data quality

Most of these data are generated automatically and are frequently updated. Quality checks on data are not normally performed. It is possible for incorrect values to appear. Refer to information at About Latest Weather Observations and please check the disclaimer before using these data.